LEXJ/SDR METAR and TAF weather

Enter ICAO airport designator
Station Type Date Time Source
LEXJ METAR 2019/11/15 05:30 UTC NOAA

LEXJ 150530Z 32014G24KT 280V020 9000 VCTS -RA SCT034 SCT042CB BKN065 10/06 Q1000


Station Type Date Time Source
LEXJ Decoded METAR 2019/11/15 05:30 UTC NOAA

Santander / Parayas, Spain (LEXJ) 43-26N 003-49W 9M
Nov 15, 2019 - 12:30 AM EST / 2019.11.15 0530 UTC
Wind: from the NW (320 degrees) at 16 MPH (14 KT) gusting to 28 MPH (24 KT) (direction variable):0
Visibility: 5 mile(s):0
Sky conditions: mostly cloudy
Weather: thunder in the vicinity; light rain; Cumulonimbus clouds observed
Temperature: 50 F (10 C)
Dew Point: 42 F (6 C)
Relative Humidity: 76%
Pressure (altimeter): 29.53 in. Hg (1000 hPa)
ob: LEXJ 150530Z 32014G24KT 280V020 9000 VCTS -RA SCT034 SCT042CB BKN065 10/06 Q1000
cycle: 5

Station Type Date Time Source
LEXJ TAF 2019/11/15 03:27 UTC NOAA

TAF LEXJ 150200Z 1503/1603 25012KT 9999 SCT020 BKN035 TX11/1514Z TN05/1521Z
BECMG 1503/1507 31012G22KT
TEMPO 1503/1518 32018G32KT 3000 RA SHRA BKN012 BKN025TCU PROB40
TEMPO 1504/1510 34025G43KT 1500 +SHRAGR TSRA BKN008 BKN025CB PROB40
TEMPO 1510/1523 SHRAGR TSRA SCT025CB

Example: see airport list